Time;durP1;ratioP1;P1;durP2;ratioP2;P2;SDS_P1;SDS_P2;PMS_P1;PMS_P2;Temp;Humidity;BMP_temperature;BMP_pressure;BME280_temperature;BME280_humidity;BME280_pressure;Samples;Min_cycle;Max_cycle;Signal;HPM_P1;HPM_P2
2022/05/20 00:01:27;;;;;;;7.15;4.55;;;18.90;89.60;;;;;;5053126;28;20044;-76
2022/05/20 00:03:53;;;;;;;11.75;6.20;;;18.80;89.60;;;;;;5053191;28;20029;-76
2022/05/20 00:06:18;;;;;;;7.85;4.95;;;18.80;89.80;;;;;;5053155;28;20072;-76
2022/05/20 00:08:44;;;;;;;8.85;5.18;;;18.80;89.60;;;;;;5053066;28;20406;-74
2022/05/20 00:11:10;;;;;;;8.77;5.57;;;18.90;89.90;;;;;;5053121;28;20523;-76
2022/05/20 00:13:36;;;;;;;8.35;5.20;;;18.90;89.60;;;;;;5053387;28;20036;-75
2022/05/20 00:16:02;;;;;;;5.07;3.85;;;18.90;89.50;;;;;;5053130;28;20199;-75
2022/05/20 00:18:28;;;;;;;8.02;5.45;;;19.00;89.70;;;;;;5053054;28;20082;-75
2022/05/20 00:20:53;;;;;;;7.03;4.70;;;19.00;89.80;;;;;;5053134;28;20017;-75
2022/05/20 00:23:19;;;;;;;9.63;5.78;;;19.00;89.70;;;;;;5052768;28;20112;-75
2022/05/20 00:25:45;;;;;;;8.90;6.55;;;19.00;89.40;;;;;;5052851;28;20052;-75
2022/05/20 00:28:11;;;;;;;6.05;4.18;;;19.00;89.10;;;;;;5053016;28;20017;-75
2022/05/20 00:30:37;;;;;;;8.40;4.90;;;18.90;89.10;;;;;;5052551;28;20029;-75
2022/05/20 00:33:03;;;;;;;9.45;5.60;;;18.90;89.50;;;;;;5052847;28;20025;-75
2022/05/20 00:35:29;;;;;;;8.82;6.10;;;18.90;89.40;;;;;;5055797;28;20032;-75
2022/05/20 00:37:55;;;;;;;8.65;6.47;;;18.90;89.10;;;;;;5056707;28;20036;-75
2022/05/20 00:40:23;;;;;;;7.80;4.90;;;18.80;89.00;;;;;;5056772;28;20032;-75
2022/05/20 00:42:49;;;;;;;6.57;5.00;;;18.80;89.30;;;;;;5056662;28;20033;-75
2022/05/20 00:45:16;;;;;;;9.30;5.63;;;18.80;89.60;;;;;;5056871;28;20109;-75
2022/05/20 00:47:42;;;;;;;10.15;5.97;;;18.80;89.50;;;;;;5056484;28;20045;-75
2022/05/20 00:50:15;;;;;;;12.68;7.75;;;18.80;89.40;;;;;;5056506;28;20025;-75
2022/05/20 00:52:47;;;;;;;10.15;6.00;;;18.90;89.10;;;;;;5056795;28;20036;-75
2022/05/20 00:55:16;;;;;;;7.43;4.80;;;18.90;89.20;;;;;;5056865;28;20016;-76
2022/05/20 00:57:47;;;;;;;6.30;4.72;;;18.80;89.20;;;;;;5056090;28;20033;-76
2022/05/20 01:00:19;;;;;;;10.00;6.70;;;18.80;89.90;;;;;;5056659;28;20040;-76
2022/05/20 01:02:48;;;;;;;6.82;4.55;;;18.80;88.70;;;;;;5056489;28;20025;-75
2022/05/20 01:05:36;;;;;;;13.65;6.60;;;18.70;89.00;;;;;;5056315;28;20059;-75
2022/05/20 01:08:04;;;;;;;11.15;7.28;;;18.60;89.10;;;;;;5056340;28;20388;-75
2022/05/20 01:10:30;;;;;;;11.15;6.95;;;18.60;88.70;;;;;;5056497;28;20029;-76
2022/05/20 01:12:57;;;;;;;8.93;6.93;;;18.30;89.20;;;;;;5056166;28;20121;-75
2022/05/20 01:15:23;;;;;;;10.48;6.78;;;18.30;89.70;;;;;;5055850;28;20104;-75
2022/05/20 01:17:51;;;;;;;10.48;7.63;;;18.30;89.80;;;;;;5056310;28;20472;-75
2022/05/20 01:20:25;;;;;;;10.43;6.55;;;18.20;89.80;;;;;;5056015;28;20541;-75
2022/05/20 01:22:53;;;;;;;9.57;7.28;;;18.10;90.00;;;;;;5056120;28;20032;-76
2022/05/20 01:25:20;;;;;;;11.23;7.47;;;18.00;90.00;;;;;;5056246;28;20155;-75
2022/05/20 01:27:46;;;;;;;12.10;8.15;;;18.00;90.10;;;;;;5055775;28;20159;-75
2022/05/20 01:30:14;;;;;;;13.68;8.00;;;17.80;90.10;;;;;;5055937;28;20151;-75
2022/05/20 01:32:40;;;;;;;8.15;6.75;;;17.70;90.30;;;;;;5055992;28;20112;-75
2022/05/20 01:35:11;;;;;;;9.23;7.22;;;17.60;90.50;;;;;;5055706;28;20167;-75
2022/05/20 01:37:36;;;;;;;7.35;6.18;;;17.60;90.90;;;;;;5055612;28;20084;-75
2022/05/20 01:40:02;;;;;;;9.25;6.75;;;17.70;91.00;;;;;;5055643;28;20032;-76
2022/05/20 01:42:35;;;;;;;9.30;6.65;;;17.80;90.80;;;;;;5055455;28;20021;-75
2022/05/20 01:45:09;;;;;;;8.70;5.82;;;17.80;90.70;;;;;;5055664;28;20025;-75
2022/05/20 01:47:46;;;;;;;8.15;5.88;;;18.00;90.60;;;;;;5054595;28;20124;-75
2022/05/20 01:50:23;;;;;;;6.60;5.25;;;18.10;90.40;;;;;;5055712;28;20031;-75
2022/05/20 01:53:07;;;;;;;5.18;3.70;;;18.10;90.30;;;;;;5055275;28;20425;-75
2022/05/20 01:55:50;;;;;;;9.45;6.13;;;18.20;90.30;;;;;;5055672;28;20358;-76
2022/05/20 01:58:22;;;;;;;;;;;18.20;90.20;;;;;;5055604;28;20480;-75
2022/05/20 02:00:55;;;;;;;6.32;5.63;;;18.30;90.20;;;;;;5055218;28;19987;-75
2022/05/20 02:03:39;;;;;;;;;;;18.30;90.10;;;;;;5055528;28;20039;-76
2022/05/20 02:06:15;;;;;;;7.13;5.72;;;18.30;89.80;;;;;;5055220;28;20275;-75
2022/05/20 02:08:54;;;;;;;6.03;5.30;;;18.30;89.50;;;;;;5055399;28;20468;-75
2022/05/20 02:11:29;;;;;;;8.10;5.82;;;18.30;89.30;;;;;;5054956;28;20473;-75
2022/05/20 02:13:58;;;;;;;8.32;6.50;;;18.30;89.20;;;;;;5055329;28;20115;-75
2022/05/20 02:16:33;;;;;;;9.52;6.63;;;18.30;89.10;;;;;;5054872;28;20025;-75
2022/05/20 02:19:28;;;;;;;7.57;5.93;;;18.30;88.80;;;;;;5054750;28;20029;-75
2022/05/20 02:21:58;;;;;;;7.95;5.88;;;18.30;88.70;;;;;;5054824;28;20029;-75
2022/05/20 02:24:28;;;;;;;10.13;7.28;;;18.30;88.50;;;;;;5055041;28;20044;-75
2022/05/20 02:27:05;;;;;;;8.98;6.53;;;18.30;88.50;;;;;;5054787;28;20030;-75
2022/05/20 02:29:43;;;;;;;7.85;5.70;;;18.20;88.40;;;;;;5055020;28;20040;-75
2022/05/20 02:32:27;;;;;;;8.68;5.70;;;18.20;88.50;;;;;;5054588;28;20029;-75
2022/05/20 02:34:53;;;;;;;8.27;5.78;;;18.20;88.60;;;;;;5054594;28;20389;-75
2022/05/20 02:37:20;;;;;;;9.30;6.40;;;18.20;88.50;;;;;;5054488;28;20025;-75
2022/05/20 02:39:46;;;;;;;6.40;5.80;;;18.20;88.40;;;;;;5054394;28;20060;-75
2022/05/20 02:42:12;;;;;;;6.68;5.63;;;18.20;88.40;;;;;;5054468;28;20469;-75
2022/05/20 02:44:37;;;;;;;8.60;5.93;;;18.20;88.50;;;;;;5054667;28;20384;-75
2022/05/20 02:47:03;;;;;;;7.35;6.00;;;18.20;88.50;;;;;;5053796;28;20476;-75
2022/05/20 02:49:29;;;;;;;7.18;5.82;;;18.20;88.50;;;;;;5054547;28;20393;-75
2022/05/20 02:51:55;;;;;;;10.45;5.93;;;18.20;88.50;;;;;;5054288;28;20029;-75
2022/05/20 02:54:20;;;;;;;6.93;6.07;;;18.20;88.50;;;;;;5054154;28;20040;-75
2022/05/20 02:56:46;;;;;;;10.75;6.35;;;18.20;88.50;;;;;;5054424;28;20083;-75
2022/05/20 03:04:43;;;;;;;6.15;5.28;;;18.20;88.30;;;;;;5054055;28;20417;-75
2022/05/20 03:07:09;;;;;;;8.15;6.32;;;18.20;88.30;;;;;;5054203;28;20025;-75
2022/05/20 03:09:34;;;;;;;6.78;6.07;;;18.20;88.20;;;;;;5054174;28;20021;-75
2022/05/20 03:12:00;;;;;;;7.80;6.22;;;18.20;88.20;;;;;;5053781;28;20520;-75
2022/05/20 03:14:26;;;;;;;8.45;5.80;;;18.20;88.00;;;;;;5053854;28;20033;-76
2022/05/20 03:16:52;;;;;;;6.80;5.53;;;18.20;87.90;;;;;;5054007;28;20032;-75
2022/05/20 03:19:19;;;;;;;6.05;5.45;;;18.20;87.90;;;;;;5054045;28;20096;-75
2022/05/20 03:21:45;;;;;;;7.45;5.43;;;18.20;88.00;;;;;;5054029;28;20036;-75
2022/05/20 03:24:11;;;;;;;9.63;6.32;;;18.20;87.90;;;;;;5053485;28;20481;-75
2022/05/20 03:26:37;;;;;;;8.82;6.38;;;18.20;87.90;;;;;;5053453;28;20383;-75
2022/05/20 03:29:04;;;;;;;6.15;5.15;;;18.20;87.90;;;;;;5053540;28;20104;-75
2022/05/20 03:31:33;;;;;;;10.00;6.63;;;18.20;88.10;;;;;;5053862;28;20380;-75
2022/05/20 03:34:05;;;;;;;6.15;5.55;;;18.20;88.40;;;;;;5053402;28;20032;-75
2022/05/20 03:36:32;;;;;;;9.15;6.00;;;18.20;88.30;;;;;;5053463;28;20051;-75
2022/05/20 03:38:57;;;;;;;6.97;5.70;;;18.20;88.40;;;;;;5053205;28;20112;-75
2022/05/20 03:41:23;;;;;;;8.10;5.70;;;18.20;88.30;;;;;;5053382;28;20029;-75
2022/05/20 03:43:49;;;;;;;8.25;6.47;;;18.20;88.30;;;;;;5053515;28;20044;-75
2022/05/20 03:46:15;;;;;;;7.70;5.10;;;18.20;88.90;;;;;;5053125;28;20017;-75
2022/05/20 03:48:40;;;;;;;9.02;6.47;;;18.10;88.40;;;;;;5053285;28;20114;-75
2022/05/20 03:51:08;;;;;;;9.55;5.93;;;18.20;88.40;;;;;;5053269;28;20036;-75
2022/05/20 03:53:34;;;;;;;8.82;6.30;;;18.20;88.30;;;;;;5053105;28;20031;-75
2022/05/20 03:56:00;;;;;;;10.85;6.55;;;18.10;88.20;;;;;;5053213;28;20107;-75
2022/05/20 03:58:25;;;;;;;6.68;5.88;;;18.00;88.20;;;;;;5053508;28;20026;-75
2022/05/20 04:03:40;;;;;;;8.23;6.10;;;18.00;88.80;;;;;;5053097;28;20079;-76
2022/05/20 04:06:05;;;;;;;9.45;7.30;;;18.00;88.90;;;;;;5053364;28;20096;-76
2022/05/20 04:08:31;;;;;;;10.10;7.20;;;18.00;88.90;;;;;;5053511;28;20599;-76
2022/05/20 04:10:56;;;;;;;7.97;6.75;;;17.90;88.90;;;;;;5059590;28;20083;-76
2022/05/20 04:13:22;;;;;;;7.53;5.97;;;17.90;89.10;;;;;;5059533;28;20079;-76
2022/05/20 04:15:48;;;;;;;7.68;6.25;;;17.90;89.10;;;;;;5059920;28;20049;-76
2022/05/20 04:18:14;;;;;;;8.63;6.68;;;17.90;89.10;;;;;;5059635;28;20049;-76
2022/05/20 04:20:40;;;;;;;9.40;7.40;;;17.80;88.90;;;;;;5059844;28;20047;-76
2022/05/20 04:23:05;;;;;;;9.70;7.32;;;17.80;88.90;;;;;;5059565;28;20472;-76
2022/05/20 04:25:31;;;;;;;8.77;6.93;;;17.70;89.50;;;;;;5059741;28;20357;-76
2022/05/20 04:27:56;;;;;;;8.55;7.10;;;17.70;89.10;;;;;;5059855;28;20059;-76
2022/05/20 04:30:22;;;;;;;9.82;7.18;;;17.60;89.20;;;;;;5059199;28;20032;-76
2022/05/20 04:32:48;;;;;;;10.15;7.35;;;17.60;89.40;;;;;;5059593;28;20032;-76
2022/05/20 04:35:13;;;;;;;7.53;6.60;;;17.50;89.60;;;;;;5059678;28;20372;-76
2022/05/20 04:37:39;;;;;;;8.07;7.28;;;17.40;90.00;;;;;;5059664;28;20031;-76
2022/05/20 04:40:05;;;;;;;7.40;5.72;;;17.50;90.00;;;;;;5059400;28;20025;-76
2022/05/20 04:48:00;;;;;;;10.93;8.82;;;17.60;90.00;;;;;;5059302;28;20052;-76
2022/05/20 04:50:26;;;;;;;11.48;9.10;;;17.60;90.00;;;;;;5059632;28;20037;-76
2022/05/20 04:52:51;;;;;;;6.40;5.78;;;17.60;90.10;;;;;;5059574;28;20384;-76
2022/05/20 04:55:17;;;;;;;8.25;7.22;;;17.60;90.20;;;;;;5059056;28;20361;-76
2022/05/20 04:57:48;;;;;;;11.70;9.82;;;17.60;90.40;;;;;;5059328;28;20033;-76
2022/05/20 05:00:22;;;;;;;11.57;8.30;;;17.60;90.30;;;;;;5059033;28;20445;-76
2022/05/20 05:02:48;;;;;;;;;;;17.50;90.40;;;;;;5059924;28;20071;-76
2022/05/20 05:05:18;;;;;;;12.18;9.60;;;17.50;90.60;;;;;;5059266;28;19909;-76
2022/05/20 05:07:47;;;;;;;12.98;10.20;;;17.40;90.60;;;;;;5058952;28;20112;-76
2022/05/20 05:10:16;;;;;;;11.38;9.25;;;17.40;91.00;;;;;;5059199;28;20028;-76
2022/05/20 05:12:42;;;;;;;10.23;8.05;;;17.40;90.70;;;;;;5058858;28;20063;-76
2022/05/20 05:15:09;;;;;;;10.25;8.20;;;17.50;90.80;;;;;;5059221;28;20052;-76
2022/05/20 05:20:23;;;;;;;16.30;11.13;;;17.50;91.00;;;;;;5058042;28;20032;-76
2022/05/20 05:22:50;;;;;;;16.70;12.80;;;17.60;91.00;;;;;;5055045;28;20036;-76
2022/05/20 05:25:16;;;;;;;24.70;15.60;;;17.60;90.90;;;;;;5055761;28;20032;-76
2022/05/20 05:27:42;;;;;;;20.95;13.98;;;17.50;91.10;;;;;;5055746;28;20017;-76
2022/05/20 05:30:10;;;;;;;19.20;13.45;;;17.30;91.40;;;;;;5055806;28;20358;-76
2022/05/20 05:32:36;;;;;;;16.13;12.43;;;17.30;91.50;;;;;;5055842;28;20075;-76
2022/05/20 05:35:03;;;;;;;14.52;11.80;;;17.30;91.50;;;;;;5055884;28;20381;-76
2022/05/20 05:37:33;;;;;;;15.85;13.00;;;17.40;91.50;;;;;;5055417;28;20487;-77
2022/05/20 05:39:58;;;;;;;16.85;13.68;;;17.50;91.40;;;;;;5055282;28;20017;-76
2022/05/20 05:42:24;;;;;;;19.00;13.32;;;17.50;91.40;;;;;;5055412;28;20036;-76
2022/05/20 05:44:52;;;;;;;16.17;11.32;;;17.50;91.40;;;;;;5055462;28;20033;-76
2022/05/20 05:47:18;;;;;;;16.13;10.65;;;17.60;91.40;;;;;;5055099;28;20106;-76
2022/05/20 05:49:43;;;;;;;17.35;11.65;;;17.60;91.40;;;;;;5055232;28;20455;-77
2022/05/20 05:52:09;;;;;;;18.55;11.80;;;17.70;91.20;;;;;;5055132;28;20013;-76
2022/05/20 05:54:35;;;;;;;16.23;10.70;;;17.60;91.20;;;;;;5055037;28;20457;-76
2022/05/20 05:57:01;;;;;;;16.05;11.55;;;17.50;91.30;;;;;;5055099;28;20456;-76
2022/05/20 05:59:28;;;;;;;14.98;11.50;;;17.40;91.10;;;;;;5055343;28;20028;-76
2022/05/20 06:02:02;;;;;;;11.60;9.10;;;17.40;91.50;;;;;;5055228;28;20431;-84
2022/05/20 06:04:28;;;;;;;16.48;10.75;;;17.40;91.60;;;;;;5053470;28;20075;-78
2022/05/20 06:06:54;;;;;;;11.45;8.35;;;17.40;91.00;;;;;;5053677;28;20345;-74
2022/05/20 06:09:20;;;;;;;15.98;11.27;;;17.40;91.20;;;;;;5053606;28;20032;-76
2022/05/20 06:11:46;;;;;;;14.27;9.80;;;17.50;91.10;;;;;;5054588;28;20021;-78
2022/05/20 06:14:11;;;;;;;17.58;10.35;;;17.60;91.30;;;;;;5064523;28;20024;-77
2022/05/20 06:16:40;;;;;;;16.65;11.63;;;17.60;90.90;;;;;;5074982;28;20032;-77
2022/05/20 06:19:06;;;;;;;14.30;10.80;;;17.70;90.60;;;;;;5056944;28;20104;-82
2022/05/20 06:21:31;;;;;;;19.63;10.63;;;17.60;90.60;;;;;;5052983;28;20108;-80
2022/05/20 06:24:00;;;;;;;18.13;10.93;;;17.50;90.50;;;;;;5051259;28;20069;-80
2022/05/20 06:26:30;;;;;;;16.05;9.52;;;17.50;90.90;;;;;;5053651;28;20017;-77
2022/05/20 06:28:56;;;;;;;15.10;9.75;;;17.70;90.70;;;;;;5052682;28;20354;-77
2022/05/20 06:31:21;;;;;;;16.00;9.82;;;17.80;90.40;;;;;;5052318;28;20023;-77
2022/05/20 06:33:47;;;;;;;15.50;11.00;;;17.80;90.20;;;;;;5050736;28;20408;-77
2022/05/20 06:41:42;;;;;;;13.00;9.50;;;17.80;90.60;;;;;;5050737;28;20035;-76
2022/05/20 06:44:07;;;;;;;15.50;10.20;;;17.80;90.60;;;;;;5052265;28;20131;-78
2022/05/20 06:46:33;;;;;;;12.35;8.35;;;17.80;90.60;;;;;;5052422;28;20028;-78
2022/05/20 06:49:00;;;;;;;17.80;10.82;;;18.00;90.70;;;;;;5052342;28;20540;-78
2022/05/20 06:51:28;;;;;;;19.35;10.13;;;18.00;90.60;;;;;;5052702;28;20033;-77
2022/05/20 06:53:55;;;;;;;13.10;7.90;;;18.10;90.60;;;;;;5052515;28;20025;-77
2022/05/20 06:56:24;;;;;;;13.20;8.75;;;18.00;90.60;;;;;;5052714;28;20033;-81
2022/05/20 06:58:50;;;;;;;14.23;9.90;;;18.10;90.70;;;;;;5052139;28;20491;-84
2022/05/20 07:01:16;;;;;;;14.30;9.85;;;18.30;90.70;;;;;;5052499;28;20033;-83
2022/05/20 07:03:43;;;;;;;14.85;8.18;;;18.30;90.80;;;;;;5054093;28;20048;-86
2022/05/20 07:06:11;;;;;;;14.63;8.60;;;18.30;90.80;;;;;;5053888;28;20021;-84
2022/05/20 07:08:37;;;;;;;13.55;8.60;;;18.40;90.50;;;;;;5053888;28;20060;-83
2022/05/20 07:11:03;;;;;;;15.65;8.32;;;18.40;90.10;;;;;;5054073;28;20021;-82
2022/05/20 07:13:29;;;;;;;11.13;7.82;;;18.50;90.00;;;;;;5053665;28;20025;-81
2022/05/20 07:15:57;;;;;;;13.30;9.65;;;18.50;89.50;;;;;;5053664;28;20178;-83
2022/05/20 07:18:23;;;;;;;11.93;8.85;;;18.60;90.00;;;;;;5053968;28;20025;-78
2022/05/20 07:20:49;;;;;;;17.90;9.88;;;18.60;90.20;;;;;;5053814;28;20029;-78
2022/05/20 07:23:14;;;;;;;14.40;10.57;;;18.50;90.50;;;;;;5053667;28;20039;-78
2022/05/20 07:25:40;;;;;;;14.00;9.88;;;18.60;90.70;;;;;;5053332;28;20108;-77
2022/05/20 07:28:06;;;;;;;13.38;9.63;;;18.60;90.70;;;;;;5053585;28;20037;-78
2022/05/20 07:30:32;;;;;;;13.52;9.30;;;18.60;90.60;;;;;;5053853;28;20423;-78
2022/05/20 07:32:58;;;;;;;12.18;9.38;;;18.60;90.70;;;;;;5053815;28;20032;-78
2022/05/20 07:35:23;;;;;;;16.73;10.88;;;18.70;90.90;;;;;;5053788;28;20028;-78
2022/05/20 07:37:50;;;;;;;15.07;8.73;;;18.80;90.90;;;;;;5053353;28;20051;-78
2022/05/20 07:40:18;;;;;;;14.50;9.15;;;18.90;90.70;;;;;;5053402;28;20029;-77
2022/05/20 07:42:43;;;;;;;13.43;9.02;;;19.20;90.20;;;;;;5053162;28;20020;-78
2022/05/20 07:45:09;;;;;;;14.95;9.20;;;19.20;89.10;;;;;;5052968;28;20036;-77
2022/05/20 07:47:35;;;;;;;14.25;9.52;;;19.30;89.10;;;;;;5052263;28;20353;-78
2022/05/20 07:50:01;;;;;;;11.00;8.02;;;19.40;88.40;;;;;;5053404;28;20070;-78
2022/05/20 07:55:11;;;;;;;13.88;9.15;;;19.50;87.20;;;;;;5052840;28;20071;-79
2022/05/20 07:57:40;;;;;;;15.13;9.35;;;19.50;87.00;;;;;;5052866;28;20033;-84
2022/05/20 08:00:06;;;;;;;14.13;8.05;;;19.60;87.10;;;;;;5054876;28;20056;-78
2022/05/20 08:02:32;;;;;;;13.73;8.52;;;19.50;87.00;;;;;;5053088;28;20037;-78
2022/05/20 08:05:01;;;;;;;12.65;8.05;;;19.50;87.10;;;;;;5052896;28;20029;-77
2022/05/20 08:07:31;;;;;;;12.73;7.93;;;19.50;86.90;;;;;;5052884;28;20477;-77
2022/05/20 08:09:58;;;;;;;12.00;8.45;;;19.60;85.80;;;;;;5052736;28;20562;-77
2022/05/20 08:12:24;;;;;;;12.90;8.77;;;19.70;87.00;;;;;;5053066;28;20087;-77
2022/05/20 08:14:50;;;;;;;13.23;9.35;;;19.90;87.60;;;;;;5053144;28;20025;-78
2022/05/20 08:17:20;;;;;;;12.60;7.80;;;20.00;85.80;;;;;;5052819;28;20031;-79
2022/05/20 08:19:46;;;;;;;13.60;8.35;;;20.00;83.90;;;;;;5052498;28;20033;-77
2022/05/20 08:22:11;;;;;;;10.70;7.38;;;20.10;85.90;;;;;;5050961;28;20384;-77
2022/05/20 08:24:37;;;;;;;11.77;6.05;;;20.20;86.50;;;;;;5051511;28;20516;-77
2022/05/20 08:27:03;;;;;;;10.45;6.85;;;20.30;83.00;;;;;;5053163;28;20104;-77
2022/05/20 08:29:32;;;;;;;10.90;5.85;;;20.20;82.10;;;;;;5053064;28;20086;-77
2022/05/20 08:31:58;;;;;;;8.13;4.85;;;20.20;82.40;;;;;;5052527;28;20469;-77
2022/05/20 08:34:23;;;;;;;8.63;4.20;;;20.20;81.60;;;;;;5053194;28;20033;-78
2022/05/20 08:36:49;;;;;;;8.18;3.20;;;20.10;80.20;;;;;;5053116;28;20021;-78
2022/05/20 08:39:14;;;;;;;10.43;5.80;;;20.20;80.90;;;;;;5052813;28;20440;-77
2022/05/20 08:41:47;;;;;;;10.82;5.32;;;20.20;81.30;;;;;;5052937;28;20029;-79
2022/05/20 08:44:17;;;;;;;7.55;3.92;;;20.30;81.50;;;;;;5052904;28;20087;-78
2022/05/20 08:46:43;;;;;;;9.57;3.70;;;20.40;80.90;;;;;;5052356;28;20052;-79
2022/05/20 08:49:16;;;;;;;8.25;4.00;;;20.60;80.50;;;;;;5052415;28;20401;-77
2022/05/20 08:51:47;;;;;;;9.88;5.65;;;20.70;80.40;;;;;;5051999;28;20376;-81
2022/05/20 08:54:12;;;;;;;10.25;5.07;;;20.80;78.60;;;;;;5051755;28;20029;-80
2022/05/20 08:56:38;;;;;;;11.65;5.60;;;20.90;77.30;;;;;;5053786;28;20495;-79
2022/05/20 08:59:15;;;;;;;9.52;6.32;;;20.80;77.50;;;;;;5055341;28;20120;-81
2022/05/20 09:01:45;;;;;;;9.65;5.95;;;20.80;77.90;;;;;;5075385;28;20028;-80
2022/05/20 09:04:13;;;;;;;9.45;5.13;;;20.80;77.20;;;;;;5062729;28;20502;-79
2022/05/20 09:07:08;;;;;;;13.38;6.72;;;20.90;78.20;;;;;;5056298;28;20114;-78
2022/05/20 09:09:42;;;;;;;11.57;6.90;;;21.00;76.30;;;;;;5056149;28;20029;-78
2022/05/20 09:12:08;;;;;;;11.48;6.40;;;21.10;77.80;;;;;;5056334;28;20033;-77
2022/05/20 09:17:22;;;;;;;9.57;5.85;;;21.20;77.30;;;;;;5051604;28;20032;-80
2022/05/20 09:20:04;;;;;;;9.23;4.90;;;21.20;77.00;;;;;;5054239;28;20033;-80
2022/05/20 09:22:35;;;;;;;6.68;3.97;;;21.10;74.90;;;;;;5054538;28;20492;-80
2022/05/20 09:25:01;;;;;;;11.18;3.13;;;21.20;75.00;;;;;;5052770;28;20049;-79
2022/05/20 09:27:33;;;;;;;8.15;4.10;;;21.20;72.80;;;;;;5054510;28;20151;-79
2022/05/20 09:30:08;;;;;;;9.13;5.10;;;21.20;72.60;;;;;;5054290;28;20029;-80
2022/05/20 09:32:45;;;;;;;7.50;5.40;;;21.10;74.00;;;;;;5053370;28;20492;-80
2022/05/20 09:35:16;;;;;;;9.63;6.65;;;21.10;75.00;;;;;;5053384;28;20431;-80
2022/05/20 09:37:43;;;;;;;9.73;6.65;;;21.20;74.90;;;;;;5053878;28;20017;-79
2022/05/20 09:40:37;;;;;;;9.13;5.50;;;21.20;75.30;;;;;;5054133;28;20029;-79
2022/05/20 09:43:07;;;;;;;9.40;7.30;;;21.20;76.90;;;;;;5054522;28;20115;-77
2022/05/20 09:45:43;;;;;;;10.82;7.88;;;21.20;76.90;;;;;;5054365;28;20041;-78
2022/05/20 09:48:10;;;;;;;11.82;7.75;;;21.20;76.80;;;;;;5053978;28;20044;-79
2022/05/20 09:50:38;;;;;;;12.88;6.20;;;21.10;76.90;;;;;;5053547;28;20021;-81
2022/05/20 09:53:32;;;;;;;11.30;7.32;;;21.00;77.10;;;;;;5053754;28;20087;-80
2022/05/20 09:56:21;;;;;;;10.27;7.15;;;21.00;76.60;;;;;;5053816;28;20025;-80
2022/05/20 09:59:10;;;;;;;14.10;7.35;;;20.80;77.30;;;;;;5053981;28;20032;-76
2022/05/20 10:01:37;;;;;;;12.50;6.57;;;20.80;77.20;;;;;;5053087;28;20024;-74
2022/05/20 10:04:11;;;;;;;10.35;6.25;;;20.90;76.90;;;;;;5053681;28;20029;-78
2022/05/20 10:06:46;;;;;;;12.88;6.55;;;21.10;79.10;;;;;;5053259;28;20025;-78
2022/05/20 10:09:27;;;;;;;19.80;10.10;;;21.30;77.00;;;;;;5053575;28;20029;-79
2022/05/20 10:11:55;;;;;;;17.25;7.68;;;21.40;76.20;;;;;;5053330;28;20096;-75
2022/05/20 10:14:40;;;;;;;12.43;7.38;;;21.50;75.30;;;;;;5053325;28;20497;-76
2022/05/20 10:17:27;;;;;;;13.48;6.30;;;21.60;75.60;;;;;;5052858;28;20111;-75
2022/05/20 10:20:06;;;;;;;11.60;7.13;;;21.60;74.00;;;;;;5051679;28;20116;-75
2022/05/20 10:23:03;;;;;;;10.45;7.03;;;21.60;73.60;;;;;;5050538;28;20024;-75
2022/05/20 10:25:49;;;;;;;8.70;5.75;;;21.60;74.10;;;;;;5050750;28;20040;-75
2022/05/20 10:34:10;;;;;;;11.35;5.90;;;21.80;75.60;;;;;;5048666;28;20036;-75
2022/05/20 10:36:59;;;;;;;11.30;6.18;;;21.90;74.70;;;;;;5050899;28;20055;-76
2022/05/20 10:40:02;;;;;;;11.15;6.00;;;22.00;73.20;;;;;;5050848;28;20056;-76
2022/05/20 10:42:39;;;;;;;9.65;6.00;;;22.20;72.40;;;;;;5051255;28;20357;-76
2022/05/20 10:48:56;;;;;;;7.57;4.60;;;22.50;71.60;;;;;;5049337;28;20048;-75
2022/05/20 10:51:36;;;;;;;5.45;3.88;;;22.70;69.70;;;;;;5033391;28;20040;-76
2022/05/20 10:54:40;;;;;;;8.90;5.03;;;22.70;68.90;;;;;;5050100;28;20112;-75
2022/05/20 10:57:24;;;;;;;8.50;4.32;;;22.80;67.50;;;;;;5052384;28;20116;-75
2022/05/20 11:00:25;;;;;;;8.05;3.95;;;22.90;67.80;;;;;;5052943;28;20021;-75
2022/05/20 11:03:15;;;;;;;10.40;4.55;;;22.80;66.00;;;;;;5051539;28;20515;-76
2022/05/20 11:06:02;;;;;;;7.63;3.85;;;22.80;65.70;;;;;;5052446;28;20395;-76
2022/05/20 11:08:46;;;;;;;7.57;3.88;;;22.60;65.50;;;;;;5049692;28;20051;-75
2022/05/20 11:11:27;;;;;;;8.57;3.35;;;22.60;65.80;;;;;;5052044;28;20028;-76
2022/05/20 11:14:26;;;;;;;6.57;4.25;;;22.70;65.90;;;;;;5052288;28;20104;-76
2022/05/20 11:17:08;;;;;;;5.40;3.55;;;22.60;66.00;;;;;;5052103;28;20456;-75
2022/05/20 11:19:46;;;;;;;6.40;3.92;;;22.60;66.40;;;;;;5050900;28;20109;-76
2022/05/20 11:22:17;;;;;;;7.43;4.03;;;22.50;65.90;;;;;;5052031;28;20263;-76
2022/05/20 11:25:18;;;;;;;7.47;4.57;;;22.50;66.30;;;;;;5050424;28;20033;-76
2022/05/20 11:28:10;;;;;;;7.88;3.63;;;22.40;66.80;;;;;;5050199;28;20025;-75
2022/05/20 11:30:53;;;;;;;7.50;4.30;;;22.30;67.30;;;;;;5051850;28;20167;-75
2022/05/20 11:33:32;;;;;;;8.55;4.68;;;22.30;67.10;;;;;;5052000;28;20095;-75
2022/05/20 11:36:26;;;;;;;9.50;5.43;;;22.30;67.20;;;;;;5051491;28;20021;-75
2022/05/20 11:39:21;;;;;;;11.98;6.60;;;22.20;67.50;;;;;;5051834;28;20051;-75
2022/05/20 11:42:14;;;;;;;8.60;5.93;;;22.20;69.00;;;;;;5045687;28;20171;-75
2022/05/20 11:44:42;;;;;;;;;;;22.20;70.00;;;;;;5051983;28;20086;-75
2022/05/20 11:47:52;;;;;;;15.50;6.03;;;22.20;70.60;;;;;;5051584;28;19920;-76
2022/05/20 11:50:45;;;;;;;12.50;7.15;;;22.30;71.30;;;;;;5046432;28;20514;-75
2022/05/20 11:53:20;;;;;;;9.93;7.78;;;22.30;71.70;;;;;;5051639;28;20028;-75
2022/05/20 11:56:30;;;;;;;11.13;8.30;;;22.30;71.40;;;;;;5051582;28;20132;-75
2022/05/20 11:59:52;;;;;;;12.35;7.60;;;22.30;71.70;;;;;;5051429;28;20488;-76
2022/05/20 12:02:19;;;;;;;9.85;6.57;;;22.10;72.50;;;;;;5022713;28;20033;-76
2022/05/20 12:04:47;;;;;;;13.55;7.75;;;22.10;72.90;;;;;;5027385;28;20095;-77
2022/05/20 12:07:16;;;;;;;11.88;7.40;;;22.10;73.70;;;;;;5040393;28;20090;-74
2022/05/20 12:09:45;;;;;;;11.93;7.78;;;22.10;73.60;;;;;;5051442;28;20028;-75
2022/05/20 12:12:13;;;;;;;10.05;7.75;;;22.00;73.90;;;;;;5051831;28;20017;-75
2022/05/20 12:14:56;;;;;;;12.75;7.82;;;22.00;74.40;;;;;;5050974;28;20031;-74
2022/05/20 12:17:35;;;;;;;12.45;8.25;;;22.00;75.00;;;;;;5050595;28;20032;-75
2022/05/20 12:26:03;;;;;;;12.43;9.15;;;21.90;76.10;;;;;;5050821;28;20055;-75
2022/05/20 12:28:34;;;;;;;12.77;9.52;;;21.90;76.10;;;;;;5051010;28;20044;-75
2022/05/20 12:31:09;;;;;;;16.13;8.70;;;21.80;76.60;;;;;;5052755;28;20036;-74
2022/05/20 12:33:59;;;;;;;13.68;9.00;;;21.80;77.00;;;;;;5055606;28;20025;-75
2022/05/20 12:36:30;;;;;;;13.23;9.55;;;21.80;77.50;;;;;;5054825;28;20030;-75
2022/05/20 12:39:08;;;;;;;12.85;9.05;;;21.80;77.50;;;;;;5055490;28;20112;-75
2022/05/20 12:41:50;;;;;;;13.57;8.25;;;21.70;77.60;;;;;;5054982;28;20029;-75
2022/05/20 12:44:15;;;;;;;16.80;9.55;;;21.80;78.10;;;;;;5053888;28;20392;-77
2022/05/20 12:47:05;;;;;;;17.55;9.50;;;21.70;79.30;;;;;;5055046;28;20041;-75
2022/05/20 12:49:47;;;;;;;14.77;9.48;;;21.70;81.10;;;;;;5055038;28;20033;-78
2022/05/20 12:52:15;;;;;;;14.52;10.10;;;21.70;83.00;;;;;;5054997;28;20033;-80
2022/05/20 12:54:54;;;;;;;21.05;12.68;;;21.70;83.30;;;;;;5055201;28;20040;-78
2022/05/20 12:57:32;;;;;;;18.58;11.80;;;21.70;85.50;;;;;;5054671;28;20083;-77
2022/05/20 13:00:02;;;;;;;18.35;14.30;;;21.60;87.40;;;;;;5054182;28;20154;-77
2022/05/20 13:02:36;;;;;;;22.40;14.85;;;21.50;88.10;;;;;;5054912;28;20033;-77
2022/05/20 13:05:39;;;;;;;23.75;14.75;;;21.30;89.30;;;;;;5053958;28;20037;-80
2022/05/20 13:08:09;;;;;;;;;;;21.10;90.00;;;;;;5053112;28;20025;-78
2022/05/20 13:10:38;;;;;;;25.38;17.67;;;21.10;90.50;;;;;;5054529;28;19909;-77
2022/05/20 13:13:34;;;;;;;30.70;18.90;;;21.00;91.70;;;;;;5054859;28;20039;-79
2022/05/20 13:16:02;;;;;;;31.80;19.80;;;20.90;92.90;;;;;;5043958;28;20120;-78
2022/05/20 13:18:31;;;;;;;29.05;20.08;;;20.80;93.70;;;;;;5054010;28;20108;-79
2022/05/20 13:21:03;;;;;;;33.60;21.10;;;20.80;94.90;;;;;;5054127;28;20112;-79
2022/05/20 13:23:33;;;;;;;29.45;21.25;;;20.60;95.40;;;;;;5054033;28;20029;-78
2022/05/20 13:25:59;;;;;;;27.05;19.17;;;20.50;95.90;;;;;;5053130;28;20025;-78
2022/05/20 13:28:34;;;;;;;31.02;22.08;;;20.40;96.00;;;;;;5054655;28;20377;-79
2022/05/20 13:31:09;;;;;;;26.42;19.25;;;20.50;96.40;;;;;;5054251;28;20052;-76
2022/05/20 13:33:38;;;;;;;31.35;20.33;;;20.50;96.60;;;;;;5053683;28;20032;-78
2022/05/20 13:36:06;;;;;;;27.20;20.02;;;20.50;96.40;;;;;;5053880;28;20049;-77
2022/05/20 13:38:39;;;;;;;23.80;19.83;;;20.50;96.60;;;;;;5053007;28;20033;-78
2022/05/20 13:41:07;;;;;;;28.15;19.35;;;20.50;96.30;;;;;;5052064;28;20029;-78
2022/05/20 13:43:36;;;;;;;29.38;20.48;;;20.50;96.40;;;;;;5051100;28;20074;-76
2022/05/20 13:51:48;;;;;;;26.98;19.83;;;20.40;97.20;;;;;;5052026;28;20094;-77